createdAt,value
2023-04-24T00:03:58.613Z,0.3
2023-04-24T00:10:18.494Z,0.3
2023-04-24T00:16:41.619Z,0.6
2023-04-24T00:23:01.519Z,0.6
2023-04-24T00:29:24.528Z,0.8
2023-04-24T00:35:44.642Z,0.8
2023-04-24T00:42:07.513Z,0.4
2023-04-24T00:48:27.513Z,0.4
2023-04-24T00:54:50.562Z,0.7
2023-04-24T01:01:10.626Z,0.7
2023-04-24T01:07:33.539Z,0.5
2023-04-24T01:13:53.555Z,0.5
2023-04-24T01:20:16.527Z,0.1
2023-04-24T01:26:36.577Z,0.1
2023-04-24T01:32:59.608Z,0.3
2023-04-24T01:39:19.496Z,0.3
2023-04-24T01:45:42.536Z,0.4
2023-04-24T01:52:02.577Z,0.4
2023-04-24T01:58:25.554Z,1
2023-04-24T02:04:45.553Z,1
2023-04-24T02:11:08.596Z,0.8
2023-04-24T02:17:28.555Z,0.8
2023-04-24T02:23:51.517Z,0.3
2023-04-24T02:30:11.582Z,0.3
2023-04-24T02:36:34.504Z,0.4
2023-04-24T02:42:54.558Z,0.4
2023-04-24T02:49:17.657Z,1.4
2023-04-24T02:55:37.521Z,1.4
2023-04-24T03:02:00.785Z,2.7
2023-04-24T03:08:20.571Z,2.7
2023-04-24T03:14:43.563Z,1
2023-04-24T03:21:03.628Z,1
2023-04-24T03:37:49.154Z,2.1
2023-04-24T03:44:09.490Z,2.1
2023-04-24T03:50:32.498Z,4.7
2023-04-24T03:56:52.573Z,4.7
2023-04-24T04:03:15.623Z,4.7
2023-04-24T04:09:35.592Z,4.7
2023-04-24T04:15:58.520Z,2
2023-04-24T04:22:18.551Z,2
2023-04-24T04:28:41.574Z,2.2
2023-04-24T04:35:01.504Z,2.2
2023-04-24T04:41:24.602Z,1
2023-04-24T04:47:44.586Z,1
2023-04-24T04:54:07.585Z,1.8
2023-04-24T05:00:27.527Z,1.8
2023-04-24T05:06:50.519Z,1.5
2023-04-24T05:13:10.626Z,1.5
2023-04-24T05:19:33.514Z,1.7
2023-04-24T05:25:53.544Z,1.7
2023-04-24T05:32:16.581Z,2.8
2023-04-24T05:38:36.528Z,2.8
2023-04-24T05:44:59.644Z,2
2023-04-24T05:51:19.553Z,2
2023-04-24T05:57:42.508Z,3.1
2023-04-24T06:04:02.739Z,3.1
2023-04-24T06:10:25.532Z,1.8
2023-04-24T06:16:45.915Z,1.8
2023-04-24T06:23:08.518Z,3.5
2023-04-24T06:29:28.585Z,3.5
2023-04-24T06:35:51.594Z,3.6
2023-04-24T06:42:11.567Z,3.6
2023-04-24T06:48:34.790Z,2.4
2023-04-24T06:54:54.547Z,2.4
2023-04-24T07:01:17.573Z,2.6
2023-04-24T07:07:37.560Z,2.6
2023-04-24T07:14:00.583Z,3.6
2023-04-24T07:20:20.558Z,3.6
2023-04-24T07:26:43.547Z,1
2023-04-24T07:33:03.584Z,1
2023-04-24T07:39:26.597Z,3.1
2023-04-24T07:45:46.560Z,3.1
2023-04-24T07:52:09.566Z,0.7
2023-04-24T07:58:29.474Z,0.7
2023-04-24T08:04:52.759Z,0.8
2023-04-24T08:11:12.531Z,0.8
2023-04-24T08:17:35.598Z,1.2
2023-04-24T08:23:55.630Z,1.2
2023-04-24T08:30:18.548Z,0.3
2023-04-24T08:36:46.302Z,0.3
2023-04-24T08:43:01.669Z,1
2023-04-24T08:58:50.404Z,0.3
2023-04-24T09:05:10.480Z,0.3
2023-04-24T09:11:33.612Z,2.3
2023-04-24T09:17:53.699Z,2.3
2023-04-24T09:24:16.614Z,2.3
2023-04-24T09:30:36.557Z,2.3
2023-04-24T09:36:59.524Z,1.3
2023-04-24T09:43:19.664Z,1.3
2023-04-24T09:49:42.754Z,1.6
2023-04-24T09:56:02.605Z,1.6
2023-04-24T10:02:25.682Z,3.4
2023-04-24T10:08:45.544Z,3.4
2023-04-24T10:15:08.653Z,2.9
2023-04-24T10:21:28.617Z,2.9
2023-04-24T10:27:51.574Z,3.1
2023-04-24T10:34:11.629Z,3.1
2023-04-24T10:40:34.845Z,5.1
2023-04-24T10:46:54.668Z,5.1
2023-04-24T10:53:17.607Z,2.7
2023-04-24T10:59:37.544Z,2.7
2023-04-24T11:06:00.552Z,5
2023-04-24T11:12:20.611Z,5
2023-04-24T11:18:43.520Z,2.6
2023-04-24T11:25:03.550Z,2.6
2023-04-24T11:31:26.646Z,1.7
2023-04-24T11:37:47.573Z,1.7
2023-04-24T11:44:09.553Z,3.8
2023-04-24T11:50:29.859Z,3.8
2023-04-24T11:56:52.555Z,2.7
2023-04-24T12:03:12.857Z,2.7
2023-04-24T12:09:35.810Z,3.1
2023-04-24T12:15:55.549Z,3.1
2023-04-24T12:22:18.582Z,1.2
2023-04-24T12:28:38.659Z,1.2
2023-04-24T12:35:01.551Z,1.9
2023-04-24T12:41:21.643Z,1.9
2023-04-24T12:47:44.512Z,2.5
2023-04-24T12:54:04.537Z,2.5
2023-04-24T13:00:27.598Z,5
2023-04-24T13:06:47.632Z,5
2023-04-24T13:13:10.542Z,2.8
2023-04-24T13:19:31.218Z,2.8
2023-04-24T13:25:53.615Z,4.3
2023-04-24T13:32:13.682Z,4.3
2023-04-24T13:38:36.542Z,4.2
2023-04-24T13:44:56.512Z,4.2
2023-04-24T13:51:19.516Z,1
2023-04-24T13:57:39.535Z,1
2023-04-24T14:14:08.251Z,2.8
2023-04-24T14:20:30.090Z,2.8
2023-04-24T14:26:53.489Z,2.2
2023-04-24T14:33:13.591Z,2.2
2023-04-24T14:39:36.519Z,4.3
2023-04-24T14:45:56.531Z,4.3
2023-04-24T14:52:19.616Z,4.5
2023-04-24T14:58:39.514Z,4.5
2023-04-24T15:05:02.637Z,2.2
2023-04-24T15:11:22.549Z,2.2
2023-04-24T15:17:45.589Z,3.3
2023-04-24T15:24:05.555Z,3.3
2023-04-24T15:30:28.573Z,1.9
2023-04-24T15:36:48.821Z,1.9
2023-04-24T15:43:11.581Z,1.2
2023-04-24T15:49:31.577Z,1.2
2023-04-24T15:55:54.520Z,3.8
2023-04-24T16:02:14.646Z,3.8
2023-04-24T16:08:37.602Z,2.4
2023-04-24T16:14:57.542Z,2.4
2023-04-24T16:21:20.637Z,3.7
2023-04-24T16:27:40.534Z,3.7
2023-04-24T16:34:03.616Z,2.6
2023-04-24T16:40:23.635Z,2.6
2023-04-24T16:46:46.646Z,2.7
2023-04-24T16:53:06.628Z,2.7
2023-04-24T16:59:29.622Z,1.5
2023-04-24T17:05:49.618Z,1.5
2023-04-24T17:12:12.803Z,3
2023-04-24T17:18:32.708Z,3
2023-04-24T17:24:55.699Z,4
2023-04-24T17:31:15.641Z,4
2023-04-24T17:37:38.667Z,2
2023-04-24T17:43:58.673Z,2
2023-04-24T17:50:21.611Z,1
2023-04-24T17:56:41.629Z,1
2023-04-24T18:03:04.738Z,1.6
2023-04-24T18:09:24.554Z,1.6
2023-04-24T18:15:47.676Z,2.8
2023-04-24T18:22:07.635Z,2.8
2023-04-24T18:28:30.624Z,2
2023-04-24T18:34:50.693Z,2
2023-04-24T18:41:13.608Z,5
2023-04-24T18:47:33.625Z,5
2023-04-24T18:53:56.689Z,1.3
2023-04-24T19:00:16.689Z,1.3
2023-04-24T19:06:39.612Z,2.6
2023-04-24T19:30:31.478Z,1
2023-04-24T19:36:51.474Z,1
2023-04-24T19:43:14.468Z,1.3
2023-04-24T19:49:34.567Z,1.3
2023-04-24T19:55:57.543Z,1.4
2023-04-24T20:02:17.593Z,1.4
2023-04-24T20:08:40.538Z,0.8
2023-04-24T20:15:00.584Z,0.8
2023-04-24T20:21:23.544Z,3.1
2023-04-24T20:27:43.505Z,3.1
2023-04-24T20:34:06.565Z,1
2023-04-24T20:40:26.492Z,1
2023-04-24T20:46:49.609Z,1.9
2023-04-24T20:53:09.537Z,1.9
2023-04-24T20:59:32.509Z,1
2023-04-24T21:05:52.542Z,1
2023-04-24T21:12:15.593Z,1.7
2023-04-24T21:18:35.502Z,1.7
2023-04-24T21:24:58.658Z,1.8
2023-04-24T21:31:18.537Z,1.8
2023-04-24T21:37:41.629Z,1.6
2023-04-24T21:44:01.671Z,1.6
2023-04-24T21:50:24.490Z,1.3
2023-04-24T21:56:44.660Z,1.3
2023-04-24T22:22:19.533Z,3.4
2023-04-24T22:28:39.461Z,3.4
2023-04-24T22:35:02.512Z,3.4
2023-04-24T22:41:22.540Z,3.4
2023-04-24T22:47:45.638Z,2.2
2023-04-24T22:54:05.507Z,2.2
2023-04-24T23:00:28.715Z,2
2023-04-24T23:06:48.531Z,2
2023-04-24T23:13:11.576Z,2.9
2023-04-24T23:19:31.597Z,2.9
2023-04-24T23:25:54.493Z,1.7
2023-04-24T23:32:14.513Z,1.7
2023-04-24T23:38:46.981Z,3.1
2023-04-24T23:44:57.593Z,3.1
2023-04-24T23:51:20.538Z,2.5
2023-04-24T23:57:40.660Z,2.5
